Terminal Aerodrome Forecast
Issued by NWS

Home | Current Version | Previous Version | Text Only | Print | Product List | Glossary On
Versions: 1 2 3 4 5 6 7 8 9 10 11 12 13 14 15 16 17 18 19 20 21 22
597
FTUS41 KGYX 270200 AAA
TAFHIE
TAF AMD
KHIE 270200Z 2702/2724 00000KT P6SM SCT050 BKN070
      TEMPO 2704/2708 -SHRA SCT070 BKN100
     FM270800 00000KT 5SM -SHRA BR SCT015 BKN030 OVC050
     FM271300 VRB03KT 5SM -SHRA BR OVC025
     FM271600 25006KT P6SM BKN025 OVC040=

USA.gov is the U.S. government's official web portal to all federal, state and local government web resources and services.